Wheatland, WY (82201)

8:21 PM MDT on August 27, 2014 (GMT -0600)
Torrington Municipal | Change Station
CLOSE
Current Station
Airport
Location: Torrington,
Elevation: 4206 ft
Nearby Weather Stations

Elev 4206 ft 42.06 °N, 104.15 °W | Updated 28 minutes ago

Clear
Clear
64 °F
Feels Like 64 °F
N
4
Wind Variable Wind from WNW

Today
High -- | Low -- °F
--% Chance of Precip.
Yesterday
High -- | Low -- °F
Precip. -- in
6:20 AM 7:41 PM
Waxing Crescent, 6% visible
Pressure 29.98 in
Visibility 10.0 miles
Clouds Clear
Dew Point 61 °F
Humidity 90%
Rainfall 1.61 in
Snow Depth Not available.
UV 0 out of 12
Pollen 7.90 out of 12
Air Quality Not available.
Flu Activity Not available.
METAR KTOR 280153Z AUTO 29003KT 10SM CLR 18/16 A3008 RMK AO2 SLP152 T01780161

More Conditions Fewer Conditions

Pressure 29.98 in
Visibility 10.0 miles
Clouds Clear
Dew Point 61 °F
Humidity 90%
Rainfall 1.61 in
Snow Depth Not available.
UV 0 out of 12
Pollen 7.90 out of 12
Air Quality Not available.
Flu Activity Not available.
METAR KTOR 280153Z AUTO 29003KT 10SM CLR 18/16 A3008 RMK AO2 SLP152 T01780161

More Conditions Fewer Conditions

10-Day Weather Forecast

Almanac

Astronomy

Aug. 27, 2014 Rise Set
Actual Time 6:20 AM MDT 7:41 PM MDT
Civil Twilight 5:51 AM MDT 8:10 PM MDT
Nautical Twilight 5:16 AM MDT 8:45 PM MDT
Astronomical Twilight 4:39 AM MDT 9:22 PM MDT
Moon 8:21 AM MDT (8/27) 8:32 PM MDT (8/27)
Length of Visible Light 14h 19m
Length of Day
13h 21m
Tomorrow will be 2m 40s shorter.
Waxing Crescent, 6% of the Moon is Illuminated
Today
Waxing Crescent
Sep 2
First Quarter
Sep 8
Full
Sep 15
Last Quarter
Sep 24
New

Today's Extremes

State Highs State Lows

Community

WunderPhotos

Upload Photos

1,747,872 photos uploaded!

Nearby

Snow Depth

Station Depth Elevation
Crow Creek 3 in 8330 ft
Reno Hill 0 in 8500 ft
Sand Lake 0 in 10050 ft
Brooklyn Lake 0 in 10220 ft
Cinnabar Park 0 in 9690 ft

Earthquake Activity

City Distance Mag. Time & Date
No recent earthquake activity has been reported nearby.
Minimum magnitude displayed is 2.5.

Coastal Water Temperatures

Place Temperature
No Stations Reporting

Nearby Weather Stations